Terminal Aerodrome Forecast
Issued by NWS Upton, NY

Home | Current Version | Previous Version | Text Only | Print | Product List | Glossary On
Versions: 1 2 3 4 5 6 7 8 9 10 11 12 13 14 15 16 17 18 19 20 21 22 23 24 25 26 27 28 29
000
FTUS41 KOKX 210500
TAFEWR
TAF
KEWR 210532Z 2106/2212 19005KT P6SM SCT050 BKN200
     FM210700 VRB03KT P6SM VCSH BKN040 BKN100
     FM211400 14007KT P6SM BKN040 BKN100
     FM220100 10004KT P6SM SCT020 BKN040
      TEMPO 2202/2206 5SM SHRA BKN020
     FM220600 10004KT P6SM SCT020 BKN040 PROB30 2206/2210 -SHRA
      BKN020=

USA.gov is the U.S. government's official web portal to all federal, state and local government web resources and services.